Time,TemperatureF,DewpointF,PressureIn,WindDirection,WindDirectionDegrees,WindSpeedMPH,WindSpeedGustMPH,Humidity,HourlyPrecipIn,Conditions,Clouds,dailyrainin,SoftwareType,DateUTC
2013-08-20 00:12:00,63.0,60.0,30.04,WSW,244,0.0,0.0,89,0.00,,,0.00,,2013-08-20 05:12:00,
2013-08-20 00:22:00,63.0,60.0,30.04,WSW,244,0.0,0.0,90,0.00,,,0.00,,2013-08-20 05:22:00,
2013-08-20 00:42:00,63.0,60.0,30.04,WSW,244,0.0,0.0,90,0.00,,,0.00,,2013-08-20 05:42:00,
2013-08-20 00:52:00,63.0,60.0,30.04,WSW,244,0.0,0.0,89,0.00,,,0.00,,2013-08-20 05:52:00,
2013-08-20 01:11:00,62.0,59.0,30.04,WSW,244,0.0,0.0,90,0.00,,,0.00,,2013-08-20 06:11:00,
2013-08-20 01:21:00,62.0,59.0,30.04,WSW,244,0.0,0.0,90,0.00,,,0.00,,2013-08-20 06:21:00,
2013-08-20 01:42:00,62.0,59.0,30.04,WSW,244,0.0,0.0,91,0.00,,,0.00,,2013-08-20 06:42:00,
2013-08-20 01:52:00,62.0,59.0,30.03,WSW,244,0.0,0.0,91,0.00,,,0.00,,2013-08-20 06:52:00,
2013-08-20 02:11:00,62.0,59.0,30.04,WSW,244,0.0,0.0,90,0.00,,,0.00,,2013-08-20 07:11:00,
2013-08-20 02:22:00,62.0,60.0,30.03,WSW,244,0.0,1.0,92,0.00,,,0.00,,2013-08-20 07:22:00,
2013-08-20 02:42:00,63.0,60.0,30.03,South,190,0.0,0.0,90,0.00,,,0.00,,2013-08-20 07:42:00,
2013-08-20 02:52:00,62.0,59.0,30.03,South,190,0.0,0.0,89,0.00,,,0.00,,2013-08-20 07:52:00,
2013-08-20 03:11:00,62.0,59.0,30.03,South,190,0.0,0.0,89,0.00,,,0.00,,2013-08-20 08:11:00,
2013-08-20 03:21:00,61.0,58.0,30.03,South,190,0.0,0.0,90,0.00,,,0.00,,2013-08-20 08:21:00,
2013-08-20 03:52:00,61.0,58.0,30.03,South,190,0.0,0.0,90,0.00,,,0.00,,2013-08-20 08:52:00,
2013-08-20 04:11:00,61.0,58.0,30.03,South,190,0.0,0.0,91,0.00,,,0.00,,2013-08-20 09:11:00,
2013-08-20 04:21:00,61.0,58.0,30.03,South,190,0.0,0.0,90,0.00,,,0.00,,2013-08-20 09:21:00,
2013-08-20 04:42:00,60.0,57.0,30.03,South,190,0.0,0.0,90,0.00,,,0.00,,2013-08-20 09:42:00,
2013-08-20 04:53:00,60.0,57.0,30.03,South,190,0.0,0.0,90,0.00,,,0.00,,2013-08-20 09:53:00,
2013-08-20 05:12:00,59.0,56.0,30.03,South,190,0.0,0.0,90,0.00,,,0.00,,2013-08-20 10:12:00,
2013-08-20 05:22:00,61.0,59.0,30.03,SSW,201,0.0,2.0,93,0.00,,,0.00,,2013-08-20 10:22:00,
2013-08-20 05:42:00,62.0,59.0,30.04,SSW,201,0.0,1.0,90,0.00,,,0.00,,2013-08-20 10:42:00,
2013-08-20 05:52:00,61.0,57.0,30.04,SSW,201,0.0,0.0,88,0.00,,,0.00,,2013-08-20 10:52:00,
2013-08-20 06:11:00,60.0,57.0,30.05,SSW,201,0.0,0.0,89,0.00,,,0.00,,2013-08-20 11:11:00,
2013-08-20 06:22:00,60.0,57.0,30.05,SSW,201,0.0,0.0,90,0.00,,,0.00,,2013-08-20 11:22:00,
2013-08-20 06:42:00,59.0,56.0,30.06,SSW,201,0.0,0.0,90,0.00,,,0.00,,2013-08-20 11:42:00,
2013-08-20 06:52:00,59.0,56.0,30.06,SSW,201,0.0,0.0,91,0.00,,,0.00,,2013-08-20 11:52:00,
2013-08-20 07:12:00,59.0,57.0,30.06,SSW,201,0.0,0.0,92,0.00,,,0.00,,2013-08-20 12:12:00,
2013-08-20 07:21:00,59.0,57.0,30.07,SSW,201,0.0,0.0,92,0.00,,,0.00,,2013-08-20 12:21:00,
2013-08-20 07:42:00,61.0,59.0,30.07,SSW,200,0.0,0.0,93,0.00,,,0.00,,2013-08-20 12:42:00,
2013-08-20 07:52:00,64.0,61.0,30.08,SSW,200,0.0,0.0,91,0.00,,,0.00,,2013-08-20 12:52:00,
2013-08-20 08:11:00,66.0,62.0,30.08,SSW,200,0.0,2.0,88,0.00,,,0.00,,2013-08-20 13:11:00,
2013-08-20 08:22:00,68.0,64.0,30.08,SSW,198,0.0,3.0,86,0.00,,,0.00,,2013-08-20 13:22:00,
2013-08-20 08:42:00,71.0,66.0,30.09,South,179,0.0,1.0,83,0.00,,,0.00,,2013-08-20 13:42:00,
2013-08-20 08:52:00,72.0,65.0,30.09,SSE,162,1.0,6.0,78,0.00,,,0.00,,2013-08-20 13:52:00,
2013-08-20 09:11:00,73.0,65.0,30.09,SW,218,2.0,5.0,76,0.00,,,0.00,,2013-08-20 14:11:00,
2013-08-20 09:21:00,75.0,66.0,30.09,SSW,195,1.0,6.0,73,0.00,,,0.00,,2013-08-20 14:21:00,
2013-08-20 09:42:00,76.0,66.0,30.09,South,184,2.0,6.0,72,0.00,,,0.00,,2013-08-20 14:42:00,
2013-08-20 09:52:00,77.0,66.0,30.09,SSW,195,3.0,6.0,69,0.00,,,0.00,,2013-08-20 14:52:00,
2013-08-20 10:11:00,77.0,66.0,30.09,South,174,2.0,6.0,69,0.00,,,0.00,,2013-08-20 15:11:00,
2013-08-20 10:22:00,78.0,67.0,30.09,South,189,2.0,6.0,68,0.00,,,0.00,,2013-08-20 15:22:00,
2013-08-20 10:43:00,79.0,67.0,30.09,South,177,2.0,7.0,66,0.00,,,0.00,,2013-08-20 15:43:00,
2013-08-20 10:53:00,79.0,66.0,30.09,WSW,249,3.0,7.0,65,0.00,,,0.00,,2013-08-20 15:53:00,
2013-08-20 11:15:00,80.0,67.0,30.09,SSW,195,3.0,7.0,65,0.00,,,0.00,,2013-08-20 16:15:00,
2013-08-20 11:30:00,-999.0,-99.9,30.09,SW,226,2.0,6.0,64,0.00,,,0.00,,2013-08-20 16:30:00,
2013-08-20 11:42:00,80.0,66.0,30.09,SW,234,3.0,8.0,63,0.00,,,0.00,,2013-08-20 16:42:00,
2013-08-20 12:12:00,82.0,66.0,30.08,WSW,247,3.0,8.0,59,0.00,,,0.00,,2013-08-20 17:12:00,
2013-08-20 12:24:00,82.0,66.0,30.08,West,262,2.0,8.0,59,0.00,,,0.00,,2013-08-20 17:24:00,
2013-08-20 12:43:00,82.0,65.0,30.08,SW,221,3.0,7.0,57,0.00,,,0.00,,2013-08-20 17:43:00,
2013-08-20 12:52:00,83.0,66.0,30.07,WSW,248,2.0,8.0,56,0.00,,,0.00,,2013-08-20 17:52:00,
2013-08-20 13:12:00,82.0,65.0,30.07,SSE,167,4.0,8.0,56,0.00,,,0.00,,2013-08-20 18:12:00,
2013-08-20 13:22:00,83.0,66.0,30.06,SW,215,4.0,11.0,57,0.00,,,0.00,,2013-08-20 18:22:00,
2013-08-20 13:52:00,84.0,64.0,30.06,SSE,168,4.0,13.0,51,0.00,,,0.00,,2013-08-20 18:52:00,
2013-08-20 14:11:00,84.0,64.0,30.05,South,182,4.0,10.0,52,0.00,,,0.00,,2013-08-20 19:11:00,
2013-08-20 14:21:00,84.0,65.0,30.05,SSW,199,4.0,8.0,53,0.00,,,0.00,,2013-08-20 19:21:00,
2013-08-20 14:42:00,85.0,66.0,30.05,SSW,194,4.0,8.0,54,0.00,,,0.00,,2013-08-20 19:42:00,
2013-08-20 14:52:00,85.0,66.0,30.04,SSW,211,3.0,8.0,54,0.00,,,0.00,,2013-08-20 19:52:00,
2013-08-20 15:12:00,85.0,64.0,30.04,South,183,3.0,11.0,50,0.00,,,0.00,,2013-08-20 20:12:00,
2013-08-20 15:22:00,85.0,65.0,30.04,WSW,241,4.0,9.0,52,0.00,,,0.00,,2013-08-20 20:22:00,
2013-08-20 15:42:00,85.0,65.0,30.03,WSW,241,5.0,10.0,51,0.00,,,0.00,,2013-08-20 20:42:00,
2013-08-20 15:52:00,84.0,66.0,30.03,SSW,202,3.0,8.0,55,0.00,,,0.00,,2013-08-20 20:52:00,
2013-08-20 16:11:00,85.0,65.0,30.02,SW,232,4.0,10.0,52,0.00,,,0.00,,2013-08-20 21:11:00,
2013-08-20 16:22:00,86.0,65.0,30.02,WNW,285,4.0,7.0,50,0.00,,,0.00,,2013-08-20 21:22:00,
2013-08-20 16:44:00,85.0,64.0,30.02,West,264,6.0,10.0,50,0.00,,,0.00,,2013-08-20 21:44:00,
2013-08-20 16:55:00,85.0,64.0,30.02,WSW,257,3.0,8.0,50,0.00,,,0.00,,2013-08-20 21:55:00,
2013-08-20 17:14:00,85.0,65.0,30.02,SSW,211,4.0,8.0,51,0.00,,,0.00,,2013-08-20 22:14:00,
2013-08-20 17:24:00,85.0,64.0,30.01,SW,216,4.0,11.0,50,0.00,,,0.00,,2013-08-20 22:24:00,
2013-08-20 17:42:00,85.0,65.0,30.01,WSW,238,2.0,7.0,51,0.00,,,0.00,,2013-08-20 22:42:00,
2013-08-20 17:53:00,85.0,65.0,30.01,SW,225,3.0,9.0,52,0.00,,,0.00,,2013-08-20 22:53:00,
2013-08-20 18:12:00,85.0,66.0,30.01,SW,236,3.0,7.0,53,0.00,,,0.00,,2013-08-20 23:12:00,
2013-08-20 18:22:00,84.0,65.0,30.01,West,259,3.0,7.0,53,0.00,,,0.00,,2013-08-20 23:22:00,
2013-08-20 18:42:00,83.0,65.0,30.01,WSW,248,2.0,8.0,54,0.00,,,0.00,,2013-08-20 23:42:00,
2013-08-20 18:52:00,83.0,65.0,30.01,WSW,251,2.0,7.0,55,0.00,,,0.00,,2013-08-20 23:52:00,
2013-08-20 19:12:00,83.0,66.0,30.01,SSW,210,1.0,7.0,57,0.00,,,0.00,,2013-08-21 00:12:00,
2013-08-20 19:22:00,81.0,65.0,30.01,WSW,240,2.0,5.0,59,0.00,,,0.00,,2013-08-21 00:22:00,
2013-08-20 19:42:00,80.0,66.0,30.01,WSW,258,1.0,5.0,62,0.00,,,0.00,,2013-08-21 00:42:00,
2013-08-20 19:52:00,79.0,66.0,30.01,SSW,197,1.0,4.0,65,0.00,,,0.00,,2013-08-21 00:52:00,
2013-08-20 20:11:00,78.0,66.0,30.01,SSW,194,0.0,3.0,66,0.00,,,0.00,,2013-08-21 01:11:00,
2013-08-20 20:22:00,77.0,66.0,30.01,SSW,195,0.0,2.0,68,0.00,,,0.00,,2013-08-21 01:22:00,
2013-08-20 20:42:00,75.0,65.0,30.01,SSW,195,0.0,1.0,72,0.00,,,0.00,,2013-08-21 01:42:00,
2013-08-20 20:52:00,73.0,65.0,30.01,SSW,195,0.0,0.0,77,0.00,,,0.00,,2013-08-21 01:52:00,
2013-08-20 21:12:00,71.0,65.0,30.01,SSW,195,0.0,0.0,80,0.00,,,0.00,,2013-08-21 02:12:00,
2013-08-20 21:22:00,70.0,64.0,30.02,SSW,195,0.0,0.0,81,0.00,,,0.00,,2013-08-21 02:22:00,
2013-08-20 21:42:00,69.0,64.0,30.02,SSW,195,0.0,0.0,83,0.00,,,0.00,,2013-08-21 02:42:00,
2013-08-20 21:52:00,68.0,63.0,30.03,SSW,195,0.0,0.0,84,0.00,,,0.00,,2013-08-21 02:52:00,
2013-08-20 22:12:00,67.0,63.0,30.03,SSW,195,0.0,0.0,86,0.00,,,0.00,,2013-08-21 03:12:00,
2013-08-20 22:23:00,66.0,62.0,30.03,SSW,195,0.0,0.0,86,0.00,,,0.00,,2013-08-21 03:23:00,
2013-08-20 22:44:00,66.0,62.0,30.03,SSW,195,0.0,0.0,87,0.00,,,0.00,,2013-08-21 03:44:00,
2013-08-20 22:55:00,65.0,61.0,30.04,SSW,195,0.0,0.0,88,0.00,,,0.00,,2013-08-21 03:55:00,
2013-08-20 23:14:00,65.0,61.0,30.04,SSW,195,0.0,0.0,88,0.00,,,0.00,,2013-08-21 04:14:00,
2013-08-20 23:24:00,65.0,62.0,30.04,SSW,195,0.0,0.0,89,0.00,,,0.00,,2013-08-21 04:24:00,
2013-08-20 23:44:00,65.0,62.0,30.04,SSW,195,0.0,0.0,89,0.00,,,0.00,,2013-08-21 04:44:00,
2013-08-20 23:54:00,64.0,61.0,30.04,SSW,195,0.0,0.0,89,0.00,,,0.00,,2013-08-21 04:54:00,